Forside
METAR-TAF:

METAR-TAF

Lufthavne :

Coningsby, England

Breddekreds: 53-05N, længdekreds: 000-10W, højde: 7 m

Aktuelle vejr

Denne rapport blev lavet for 1 time og 7 minutter siden, kl. 11:50 UTC
Vind 8 kt fra østnordøst
Temperatur 9°C
Fugtighed 53%
Tryk 1034 hPa
Sigt 10 km eller mere
Brudte skyer i en højde af 3800 ft

METAR: EGXC 311150Z 06008KT 9999 BKN038 09/00 Q1034 NOSIG RMK BLU BLU

Tid: 13:57 (12:57 UTC)

Vejrudsigter

Denne rapport blev lavet for 2 timer og 6 minutter siden, kl. 10:51 UTC
Foreløbig gælder fra 31 på 12 UTC til 01 på 06 UTC
Vind 10 kt fra nordøst
Sigt 10 km eller mere
Spredte skyer i en højde af 3500 ft
Sandsynlighed 30% :
Midlertidig
fra 01 på 02 UTC til 01 på 06 UTC
Spredte skyer i en højde af 2000 ft

TAF: EGXC 311051Z 3112/0106 05010KT 9999 SCT035 PROB30 TEMPO 0102/0106 SCT020

Vejrobservationer og prognoser fra mere end 4000 lufthavne (METAR og TAF).

De gule og røde prikker repræsenterer de meteorologiske stationer.

Flyt musen over at se navnet på stationen.

Så klik over at se vejr observationer og prognoser.

At skifte det kort: Klik på de grønne knapper med et sort kors for at zoome ind; på den grønne knap med en bindestreg for at zoome ud; eller på de grønne pile for tilstødende kort.


METAR-TAF: